Flight Track Log - Related Links

Times and Time Zones

All times are in EDT time to prevent confusion due to time zone crossing. See the PDT4226 flight status page for this flight to view local times or setup timezone preferences in your user account.

Time Position Orientation Groundspeed Altitude Reporting Facility
EDT Latitude Longitude Course Direction KTS MPH feet Rate Location/Type
Wed 02:08:00 PM 41.8612 -75.8663 159° South  Level Estimated
Wed 02:09:00 PM 41.7743 -75.8382 153° Southeast  Level Estimated
Wed 02:10:00 PM 41.6875 -75.8101 161° South  Level Estimated
Wed 02:11:00 PM 41.6004 -75.7838 167° South  Level FlightAware Approximate
Wed 02:12:00 PM 41.5135 -75.7558 162° South  Level Estimated
Wed 02:13:00 PM 41.4275 -75.7239 164° South  Level FlightAware Approximate
Wed 02:14:00 PM 41.3414 -75.6920 164° South  Level FlightAware Approximate
Wed 02:15:00 PM 41.2545 -75.6648 159° South  Level Estimated
Wed 02:16:00 PM 41.1675 -75.6376 163° South  Level Estimated
Wed 02:17:00 PM 41.0823 -75.6019 162° South  Level FlightAware Approximate
Wed 02:18:00 PM 40.9971 -75.5664 163° South  Level FlightAware Approximate
Wed 02:19:00 PM 40.9099 -75.5407 190° South  Level Estimated
Wed 02:20:00 PM 40.8208 -75.5318 176° South  Level FlightAware Approximate
Wed 02:21:00 PM 40.7339 -75.5048 187° South  Level Estimated
Wed 02:22:00 PM 40.6469 -75.4779 190° South  Level Estimated
Wed 02:23:00 PM 40.5584 -75.4940 188° South  Level FlightAware Approximate
Wed 02:24:00 PM 40.4725 -75.4620 143° Southeast  Level Estimated
Wed 02:25:00 PM 40.3865 -75.4301 143° Southeast  Level Estimated
Wed 02:26:00 PM 40.3005 -75.3982 143° Southeast  Level Estimated
Wed 02:27:00 PM 40.2146 -75.3665 123° Southeast  Level Estimated
Wed 02:28:00 PM 40.1286 -75.3348 150° Southeast  Level Estimated
Wed 02:29:00 PM 40.0426 -75.3032 150° Southeast  Level Estimated
Wed 02:30:00 PM 39.9566 -75.2717 150° Southeast  Level Estimated
Wed 02:31:00 PM 39.8667 -75.2333 150° Southeast  Level FlightAware Approximate
Wed 02:32:00 PM 39.8722 -75.2409 150° Southeast  Level Estimated
Wed 02:32:39 PM 40.6000 -75.4833 150° Southeast 213 245 4,900  Level Philadelphia TRACON
Wed 02:33:00 PM 39.8722 -75.2409 150° Southeast  Level Estimated
Wed 02:33:51 PM 40.5333 -75.5000 191° South 214 246 5,000  Level Philadelphia TRACON
Wed 02:34:00 PM 39.8722 -75.2409 150° Southeast  Level Estimated
Wed 02:34:51 PM 40.4833 -75.5000 180° South 216 249 5,000  Level Philadelphia TRACON
Wed 02:35:00 PM 39.8722 -75.2409 150° Southeast  Level Estimated
Wed 02:35:51 PM 40.4167 -75.5167 191° South 219 252 5,000  Level Philadelphia TRACON
Wed 02:36:00 PM 39.8722 -75.2409 150° Southeast  Level Estimated
Wed 02:36:51 PM 40.3667 -75.5333 194° South 215 247 5,000  Level Philadelphia TRACON
Wed 02:37:00 PM 39.8722 -75.2409 150° Southeast  Level Estimated
Wed 02:37:51 PM 40.3000 -75.5500 191° South 215 247 5,000  Level Philadelphia TRACON
Wed 02:38:00 PM 39.8722 -75.2409 150° Southeast  Level Estimated
Wed 02:38:51 PM 40.2333 -75.5500 180° South 214 246 5,000  Level Philadelphia TRACON
Wed 02:39:51 PM 40.1833 -75.5500 180° South 216 249 5,000  Level Philadelphia TRACON
Wed 02:40:52 PM 40.1167 -75.5333 169° South 221 254 5,000  Level Philadelphia TRACON
Wed 02:41:51 PM 40.0667 -75.5167 166° South 220 253 5,000  Level Philadelphia TRACON
Wed 02:42:58 PM 40.0000 -75.5333 191° South 210 242 5,000  Level Philadelphia TRACON
Wed 02:43:46 PM 39.9667 -75.5667 217° Southwest 216 249 5,000  Level Philadelphia TRACON
Wed 02:44:52 PM 39.9167 -75.6167 217° Southwest 217 250 5,000 -50 Level Philadelphia TRACON
Wed 02:45:46 PM 39.8500 -75.6333 191° South 223 257 4,900 -476 Descending Philadelphia TRACON
Wed 02:46:58 PM 39.8000 -75.6000 153° Southeast 221 254 4,000 -636 Descending Philadelphia TRACON
Wed 02:47:58 PM 39.8167 -75.5333 72° East 196 226 3,500 -737 Descending Philadelphia TRACON
Wed 02:48:52 PM 39.8167 -75.4667 90° East 194 223 2,600 -737 Descending Philadelphia TRACON
Wed 02:49:52 PM 39.8333 -75.4000 72° East 178 205 2,100 -700 Descending Philadelphia TRACON
Wed 02:50:52 PM 39.8500 -75.3500 67° East 181 208 1,200 -895 Descending Philadelphia TRACON
Wed 02:51:46 PM 39.8500 -75.3000 90° East 130 150 400 -889 Descending Philadelphia TRACON

Login

Don't have an account? Register now (free) for customized features, flight alerts, and more!